Saturday, August 18, 2018, 3:16 AM EDT
Back to Local

KBML, Berlin Municipal Airport

Location: Milan, NH, United States Lat: 44.583
Local Time: 3:16 AM EDT ( 7:16 GMT) Lon: -71.183
Time Zone: US/Eastern Elev: 1158 ft

Show me the last for .
Show Decoded

2018-08-18 02:52 METAR KBML 180652Z AUTO 00000KT 7SM OVC027 19/19 A2981 RMK AO2 SLP088 T01940189
                 =
2018-08-18 02:26 METAR KBML 180626Z AUTO 00000KT 6SM BR OVC027 19/19 A2982 RMK AO2 T01940189 =
2018-08-18 01:52 METAR KBML 180552Z AUTO 35003KT 6SM BR BKN032 OVC055 19/19 A2984 RMK AO2 SLP097
                 60006 T01940189 10217 20189 58021 =
2018-08-18 00:52 METAR KBML 180452Z AUTO 00000KT 7SM SCT041 19/18 A2987 RMK AO2 SLP110 T01890183
                 402720089 =
2018-08-17 23:52 METAR KBML 180352Z AUTO 35004KT 7SM SCT042 SCT050 BKN060 19/19 A2988 RMK AO2
                 RAE11 SLP114 P0000 T01940189 =
2018-08-17 22:52 METAR KBML 180252Z AUTO 16003KT 7SM -RA SCT040 OVC048 20/19 A2990 RMK AO2 RAB14
                 SLP122 P0006 60006 T02000189 58008 =
2018-08-17 21:52 METAR KBML 180152Z AUTO 16003KT 10SM FEW043 BKN065 BKN080 21/18 A2991 RMK AO2
                 SLP126 T02110178 =
2018-08-17 20:52 METAR KBML 180052Z AUTO 15004KT 10SM BKN039 BKN048 OVC100 21/18 A2993 RMK AO2
                 RAB36E48 SLP135 P0000 T02110183 =
2018-08-17 19:52 METAR KBML 172352Z AUTO 16005KT 10SM SCT046 SCT065 OVC095 22/18 A2993 RMK AO2
                 SLP134 60000 T02170178 10267 20217 56017 =
2018-08-17 18:52 METAR KBML 172252Z AUTO 16006KT 10SM SCT046 BKN070 OVC090 23/18 A2994 RMK AO2
                 RAB2159E15 SLP139 P0000 T02280183 =
2018-08-17 17:52 METAR KBML 172152Z AUTO 17005KT 10SM FEW060 BKN080 OVC095 23/18 A2996 RMK AO2
                 RAB2056E05 SLP144 P0000 T02280183 =
2018-08-17 16:52 METAR KBML 172052Z AUTO 15008KT 10SM FEW040 SCT075 BKN090 23/19 A2998 RMK AO2
                 RAB1954E48 SLP150 P0000 60000 T02330194 58018 =
2018-08-17 15:52 METAR KBML 171952Z AUTO 15005KT 10SM BKN039 BKN050 OVC110 23/19 A3000 RMK AO2
                 RAB18E47 SLP157 P0000 T02330189 =
2018-08-17 14:52 METAR KBML 171852Z AUTO 19007KT 10SM FEW047 SCT055 BKN070 26/18 A3001 RMK AO2
                 SLP162 T02560183 =
2018-08-17 13:52 METAR KBML 171752Z AUTO 21006KT 10SM FEW047 SCT060 BKN090 27/17 A3003 RMK AO2
                 RAB29E38 SLP167 P0000 60000 T02670172 10272 20106 56024 =
2018-08-17 12:52 METAR KBML 171652Z AUTO 00000KT 10SM CLR 26/17 A3005 RMK AO2 SLP174 T02560167 =
2018-08-17 11:52 METAR KBML 171552Z AUTO 00000KT 10SM CLR 24/16 A3008 RMK AO2 SLP185 T02390161 =
2018-08-17 10:52 METAR KBML 171452Z AUTO 00000KT 10SM CLR 21/14 A3010 RMK AO2 SLP194 T02060144
                 58018 =
2018-08-17 09:52 METAR KBML 171352Z AUTO 00000KT 10SM SCT003 16/13 A3013 RMK AO2 SLP203 T01610133
                 =
2018-08-17 08:59 METAR KBML 171259Z AUTO 01003KT 6SM BR OVC002 12/11 A3015 RMK AO2 T01170111 =
2018-08-17 08:52 METAR KBML 171252Z AUTO VRB03KT 2 1/2SM BR OVC002 12/12 A3014 RMK AO2 VIS 1V5
                 SLP211 T01170117 =
2018-08-17 08:42 METAR KBML 171242Z AUTO 00000KT 1 1/4SM BR OVC002 12/11 A3014 RMK AO2 VIS 1/2V4
                 T01170111 =
2018-08-17 08:40 METAR KBML 171240Z AUTO 00000KT 2SM BR OVC002 12/11 A3014 RMK AO2 VIS 1V4
                 T01170111 =
2018-08-17 08:32 METAR KBML 171232Z AUTO 00000KT 1 1/2SM BR OVC002 12/11 A3015 RMK AO2 T01170111
                 =
2018-08-17 08:18 METAR KBML 171218Z AUTO 00000KT 1/2SM FG OVC002 11/11 A3015 RMK AO2 T01060106 =
2018-08-17 07:52 METAR KBML 171152Z AUTO 00000KT 1/4SM FG VV002 11/11 A3016 RMK AO2 SLP216
                 T01060106 10106 20089 51003 =
2018-08-17 06:52 METAR KBML 171052Z AUTO 00000KT M1/4SM FG VV002 10/10 A3016 RMK AO2 SLP212
                 T01000100 =
2018-08-17 06:01 METAR KBML 171001Z AUTO 00000KT 1/4SM FG VV002 09/09 A3015 RMK AO2 T00890089 =
2018-08-17 05:52 METAR KBML 170952Z AUTO 00000KT 1/2SM FG VV002 09/09 A3015 RMK AO2 SLP211
                 T00890089 =
2018-08-17 05:48 METAR KBML 170948Z AUTO 00000KT 1/2SM FG VV002 09/08 A3015 RMK AO2 =
2018-08-17 05:43 METAR KBML 170943Z AUTO 00000KT 1SM BR OVC001 09/08 A3016 RMK AO2 VIS 1/2V3
                 T00890083 =
2018-08-17 05:34 METAR KBML 170934Z AUTO 00000KT 3/4SM BR VV001 09/08 A3015 RMK AO2 T00890083 =
2018-08-17 04:52 METAR KBML 170852Z AUTO 00000KT 1/4SM FG VV001 09/09 A3015 RMK AO2 SLP209
                 T00940094 53003 =
2018-08-17 03:52 METAR KBML 170752Z AUTO 00000KT 1/4SM FG VV001 10/10 A3014 RMK AO2 SLP205
                 T01000100 =

Support USWX by starting your Amazon purchase here.